createdAt,value
2022-09-03T00:00:44.844Z,97703.91
2022-09-03T00:03:22.494Z,97695.16
2022-09-03T00:06:10.098Z,97691.66
2022-09-03T00:08:54.179Z,97691.53
2022-09-03T00:11:32.832Z,97676.97
2022-09-03T00:14:06.044Z,97695.66
2022-09-03T00:17:03.212Z,97680.78
2022-09-03T00:19:39.689Z,97684.91
2022-09-03T00:22:13.351Z,97681.13
2022-09-03T00:24:42.370Z,97678.69
2022-09-03T00:27:16.161Z,97670.41
2022-09-03T00:29:59.147Z,97676.41
2022-09-03T00:32:42.400Z,97679.63
2022-09-03T00:35:18.103Z,97668.94
2022-09-03T00:37:44.653Z,97680.69
2022-09-03T00:40:49.361Z,97689.28
2022-09-03T00:43:31.640Z,97677.53
2022-09-03T00:46:11.859Z,97686.22
2022-09-03T00:48:56.676Z,97689.72
2022-09-03T00:51:42.641Z,97687.59
2022-09-03T00:54:30.269Z,97685.16
2022-09-03T00:57:16.876Z,97678.81
2022-09-03T01:00:01.653Z,97679.38
2022-09-03T01:02:42.072Z,97673.09
2022-09-03T01:05:25.698Z,97673.50
2022-09-03T01:08:08.190Z,97678.81
2022-09-03T01:11:20.330Z,97684.13
2022-09-03T01:14:43.156Z,97670.84
2022-09-03T01:17:36.995Z,97686.38
2022-09-03T01:20:26.022Z,97680.91
2022-09-03T01:23:35.834Z,97685.19
2022-09-03T01:26:18.548Z,97689.00
2022-09-03T01:29:00.340Z,97689.22
2022-09-03T01:31:46.610Z,97689.59
2022-09-03T01:34:30.010Z,97682.06
2022-09-03T01:37:24.181Z,97694.47
2022-09-03T01:40:06.432Z,97689.84
2022-09-03T01:43:08.678Z,97683.34
2022-09-03T01:45:53.007Z,97687.94
2022-09-03T01:48:26.618Z,97692.81
2022-09-03T01:51:20.002Z,97687.69
2022-09-03T01:54:36.955Z,97694.34
2022-09-03T01:57:06.574Z,97695.63
2022-09-03T01:59:59.857Z,97696.78
2022-09-03T02:02:28.322Z,97690.91
2022-09-03T02:05:09.308Z,97699.06
2022-09-03T02:07:40.462Z,97699.06
2022-09-03T02:10:11.452Z,97700.69
2022-09-03T02:12:40.159Z,97709.81
2022-09-03T02:15:13.610Z,97708.75
2022-09-03T02:17:42.905Z,97707.94
2022-09-03T02:20:13.678Z,97701.78
2022-09-03T02:22:40.890Z,97694.75
2022-09-03T02:25:08.113Z,97682.94
2022-09-03T02:27:34.964Z,97693.41
2022-09-03T02:30:01.550Z,97697.97
2022-09-03T02:32:28.464Z,97697.50
2022-09-03T02:34:54.955Z,97696.66
2022-09-03T02:37:22.548Z,97690.28
2022-09-03T02:39:49.226Z,97700.75
2022-09-03T02:42:15.957Z,97698.69
2022-09-03T02:44:47.364Z,97694.63
2022-09-03T02:47:15.056Z,97697.19
2022-09-03T02:49:41.523Z,97689.16
2022-09-03T02:52:11.816Z,97685.72
2022-09-03T02:54:42.235Z,97695.44
2022-09-03T02:57:11.667Z,97687.69
2022-09-03T02:59:39.697Z,97689.03
2022-09-03T03:02:06.205Z,97690.88
2022-09-03T03:04:33.362Z,97685.22
2022-09-03T03:06:59.834Z,97687.06
2022-09-03T03:09:26.347Z,97681.44
2022-09-03T03:11:55.328Z,97678.97
2022-09-03T03:14:22.588Z,97682.44
2022-09-03T03:16:50.758Z,97682.72
2022-09-03T03:19:17.424Z,97680.78
2022-09-03T03:21:44.054Z,97684.59
2022-09-03T03:24:10.710Z,97684.81
2022-09-03T03:26:37.390Z,97681.84
2022-09-03T03:29:07.232Z,97686.47
2022-09-03T03:31:33.877Z,97686.47
2022-09-03T03:34:02.782Z,97684.81
2022-09-03T03:36:33.238Z,97692.88
2022-09-03T03:39:00.740Z,97695.56
2022-09-03T03:41:31.377Z,97701.50
2022-09-03T03:44:00.230Z,97697.22
2022-09-03T03:46:30.477Z,97706.38
2022-09-03T03:48:57.230Z,97700.78
2022-09-03T03:51:23.714Z,97704.81
2022-09-03T03:53:54.686Z,97694.25
2022-09-03T03:56:21.255Z,97696.19
2022-09-03T03:58:48.393Z,97695.63
2022-09-03T04:01:18.618Z,97695.69
2022-09-03T04:03:45.377Z,97702.69
2022-09-03T04:06:14.312Z,97697.88
2022-09-03T04:08:42.831Z,97698.94
2022-09-03T04:11:13.890Z,97684.41
2022-09-03T04:13:42.751Z,97695.44
2022-09-03T04:16:33.279Z,97703.22
2022-09-03T04:19:00.002Z,97697.31
2022-09-03T04:21:29.825Z,97702.16
2022-09-03T04:23:57.553Z,97707.00
2022-09-03T04:26:28.273Z,97709.69
2022-09-03T04:28:54.993Z,97707.00
2022-09-03T04:31:21.452Z,97712.91
2022-09-03T04:33:48.741Z,97695.19
2022-09-03T04:36:21.086Z,97714.53
2022-09-03T04:38:49.665Z,97712.44
2022-09-03T04:41:19.442Z,97709.22
2022-09-03T04:43:49.349Z,97721.56
2022-09-03T04:46:18.477Z,97728.53
2022-09-03T04:48:48.782Z,97735.50
2022-09-03T04:51:17.639Z,97744.16
2022-09-03T04:53:46.407Z,97741.19
2022-09-03T04:56:21.795Z,97758.13
2022-09-03T04:58:51.242Z,97773.69
2022-09-03T05:01:21.141Z,97778.50
2022-09-03T05:03:48.294Z,97778.50
2022-09-03T05:06:17.138Z,97793.56
2022-09-03T05:08:48.830Z,97787.09
2022-09-03T05:11:17.470Z,97784.38
2022-09-03T05:13:49.183Z,97791.31
2022-09-03T05:16:17.117Z,97793.69
2022-09-03T05:18:45.098Z,97783.16
2022-09-03T05:21:14.172Z,97795.56
2022-09-03T05:23:45.830Z,97782.41
2022-09-03T05:26:17.888Z,97790.09
2022-09-03T05:28:45.772Z,97798.19
2022-09-03T05:31:13.649Z,97791.75
2022-09-03T05:33:45.686Z,97785.22
2022-09-03T05:36:14.898Z,97779.34
2022-09-03T05:38:41.972Z,97771.75
2022-09-03T05:41:11.230Z,97773.03
2022-09-03T05:43:38.029Z,97778.19
2022-09-03T05:46:07.842Z,97777.41
2022-09-03T05:48:36.291Z,97766.66
2022-09-03T05:51:06.004Z,97770.72
2022-09-03T05:53:35.091Z,97768.78
2022-09-03T05:56:04.178Z,97761.78
2022-09-03T05:58:32.090Z,97779.56
2022-09-03T06:00:59.022Z,97772.84
2022-09-03T06:03:26.317Z,97778.19
2022-09-03T06:05:54.512Z,97767.69
2022-09-03T06:08:22.258Z,97774.97
2022-09-03T06:10:48.844Z,97768.03
2022-09-03T06:13:15.290Z,97774.44
2022-09-03T06:15:41.813Z,97765.88
2022-09-03T06:18:08.361Z,97761.88
2022-09-03T06:20:37.114Z,97756.78
2022-09-03T06:23:04.141Z,97763.72
2022-09-03T06:25:31.913Z,97769.78
2022-09-03T06:27:59.028Z,97775.25
2022-09-03T06:30:26.679Z,97772.63
2022-09-03T06:32:53.907Z,97763.78
2022-09-03T06:35:20.538Z,97778.03
2022-09-03T06:37:47.024Z,97786.63
2022-09-03T06:40:14.113Z,97780.72
2022-09-03T06:42:41.391Z,97779.66
2022-09-03T06:45:12.365Z,97779.88
2022-09-03T06:47:38.827Z,97771.50
2022-09-03T06:50:05.826Z,97767.94
2022-09-03T06:52:32.269Z,97770.34
2022-09-03T06:54:58.723Z,97775.19
2022-09-03T06:57:25.150Z,97764.50
2022-09-03T06:59:51.596Z,97776.88
2022-09-03T07:02:19.178Z,97776.88
2022-09-03T07:04:45.747Z,97787.44
2022-09-03T07:07:16.377Z,97800.91
2022-09-03T07:09:46.347Z,97806.81
2022-09-03T07:12:16.825Z,97817.34
2022-09-03T07:14:43.289Z,97824.31
2022-09-03T07:17:10.808Z,97823.50
2022-09-03T07:19:37.451Z,97796.56
2022-09-03T07:22:03.874Z,97788.78
2022-09-03T07:24:30.429Z,97775.59
2022-09-03T07:26:57.705Z,97763.97
2022-09-03T07:29:24.242Z,97774.16
2022-09-03T07:31:52.434Z,97794.66
2022-09-03T07:34:20.290Z,97800.06
2022-09-03T07:36:51.035Z,97800.63
2022-09-03T07:39:18.373Z,97800.06
2022-09-03T07:41:46.443Z,97793.91
2022-09-03T07:44:15.144Z,97810.81
2022-09-03T07:46:43.383Z,97806.25
2022-09-03T07:49:11.337Z,97803.28
2022-09-03T07:51:39.038Z,97801.91
2022-09-03T07:54:09.964Z,97797.81
2022-09-03T07:56:37.385Z,97808.63
2022-09-03T07:59:05.411Z,97828.00
2022-09-03T08:01:33.821Z,97830.16
2022-09-03T08:04:01.512Z,97832.88
2022-09-03T08:06:29.856Z,97825.88
2022-09-03T08:09:05.291Z,97819.44
2022-09-03T08:11:35.899Z,97819.16
2022-09-03T08:14:06.157Z,97814.84
2022-09-03T08:16:35.649Z,97810.84
2022-09-03T08:19:02.270Z,97812.16
2022-09-03T08:21:28.718Z,97821.88
2022-09-03T08:24:02.909Z,97822.13
2022-09-03T08:26:31.890Z,97818.91
2022-09-03T08:28:58.862Z,97829.66
2022-09-03T08:31:26.501Z,97820.00
2022-09-03T08:33:54.262Z,97819.19
2022-09-03T08:36:23.646Z,97826.97
2022-09-03T08:38:54.945Z,97828.88
2022-09-03T08:41:32.024Z,97826.81
2022-09-03T08:44:28.138Z,97820.91
2022-09-03T08:47:01.000Z,97822.69
2022-09-03T08:49:52.234Z,97826.91
2022-09-03T08:52:48.834Z,97830.88
2022-09-03T08:55:28.919Z,97832.78
2022-09-03T08:58:03.370Z,97849.19
2022-09-03T09:00:41.191Z,97846.97
2022-09-03T09:03:30.210Z,97849.44
2022-09-03T09:06:13.136Z,97852.44
2022-09-03T09:09:13.857Z,97845.78
2022-09-03T09:11:45.421Z,97846.38
2022-09-03T09:14:45.785Z,97852.28
2022-09-03T09:17:31.495Z,97852.63
2022-09-03T09:20:15.029Z,97860.88
2022-09-03T09:22:47.427Z,97859.72
2022-09-03T09:25:20.514Z,97852.19
2022-09-03T09:28:22.493Z,97856.00
2022-09-03T09:30:54.949Z,97863.53
2022-09-03T09:33:23.459Z,97857.59
2022-09-03T09:35:49.944Z,97858.94
2022-09-03T09:38:28.505Z,97861.09
2022-09-03T09:40:57.084Z,97855.53
2022-09-03T09:43:24.471Z,97863.50
2022-09-03T09:45:53.911Z,97865.84
2022-09-03T09:48:34.033Z,97868.78
2022-09-03T09:51:11.005Z,97859.19
2022-09-03T09:53:39.350Z,97865.28
2022-09-03T09:56:06.388Z,97864.81
2022-09-03T09:58:34.866Z,97867.88
2022-09-03T10:01:14.881Z,97856.59
2022-09-03T10:03:55.146Z,97855.66
2022-09-03T10:06:46.963Z,97853.31
2022-09-03T10:09:23.268Z,97858.56
2022-09-03T10:12:08.110Z,97862.66
2022-09-03T10:14:41.132Z,97831.63
2022-09-03T10:17:28.363Z,97865.66
2022-09-03T10:20:30.579Z,97859.69
2022-09-03T10:23:01.606Z,97866.03
2022-09-03T10:25:40.141Z,97857.00
2022-09-03T10:28:10.538Z,97861.19
2022-09-03T10:31:18.971Z,97869.94
2022-09-03T10:33:55.415Z,97867.25
2022-09-03T10:36:24.093Z,97867.19
2022-09-03T10:39:08.926Z,97857.53
2022-09-03T10:41:46.910Z,97857.53
2022-09-03T10:44:40.480Z,97861.84
2022-09-03T10:47:20.957Z,97859.28
2022-09-03T10:50:16.531Z,97869.16
2022-09-03T10:52:54.943Z,97859.34
2022-09-03T10:55:33.129Z,97865.50
2022-09-03T10:58:33.649Z,97860.34
2022-09-03T11:01:13.223Z,97861.69
2022-09-03T11:04:07.588Z,97855.59
2022-09-03T11:06:43.974Z,97851.78
2022-09-03T11:09:22.294Z,97847.31
2022-09-03T11:12:04.310Z,97845.66
2022-09-03T11:14:45.054Z,97837.03
2022-09-03T11:17:20.793Z,97848.22
2022-09-03T11:19:59.959Z,97848.47
2022-09-03T11:22:27.092Z,97842.81
2022-09-03T11:24:59.512Z,97829.09
2022-09-03T11:27:41.093Z,97831.81
2022-09-03T11:30:10.384Z,97831.13
2022-09-03T11:33:05.654Z,97831.84
2022-09-03T11:35:32.003Z,97830.13
2022-09-03T11:38:04.803Z,97828.81
2022-09-03T11:40:40.137Z,97818.97
2022-09-03T11:43:14.529Z,97822.59
2022-09-03T11:45:41.427Z,97821.03
2022-09-03T11:48:46.152Z,97827.81
2022-09-03T11:51:30.981Z,97820.97
2022-09-03T11:54:23.800Z,97822.00
2022-09-03T11:56:50.594Z,97807.94
2022-09-03T11:59:20.532Z,97808.38
2022-09-03T12:02:05.544Z,97803.84
2022-09-03T12:04:55.943Z,97806.25
2022-09-03T12:07:43.951Z,97807.25
2022-09-03T12:10:26.947Z,97803.84
2022-09-03T12:13:30.990Z,97803.25
2022-09-03T12:16:39.348Z,97796.72
2022-09-03T12:19:25.671Z,97791.50
2022-09-03T12:21:52.737Z,97797.53
2022-09-03T12:24:20.252Z,97799.06
2022-09-03T12:26:46.692Z,97800.44
2022-09-03T12:29:27.648Z,97795.13
2022-09-03T12:31:56.387Z,97797.63
2022-09-03T12:34:23.846Z,97793.81
2022-09-03T12:36:53.240Z,97793.59
2022-09-03T12:42:19.636Z,97783.13
2022-09-03T12:44:46.064Z,97792.41
2022-09-03T12:47:33.574Z,97800.56
2022-09-03T12:50:11.573Z,97794.31
2022-09-03T12:52:47.252Z,97791.41
2022-09-03T12:55:36.148Z,97800.50
2022-09-03T12:58:15.043Z,97807.91
2022-09-03T13:00:51.690Z,97809.78
2022-09-03T13:03:26.594Z,97809.78
2022-09-03T13:05:57.610Z,97804.22
2022-09-03T13:08:29.258Z,97808.44
2022-09-03T13:10:59.956Z,97813.22
2022-09-03T13:13:29.159Z,97800.69
2022-09-03T13:16:33.644Z,97814.38
2022-09-03T13:19:26.818Z,97759.06
2022-09-03T13:22:05.378Z,97804.88
2022-09-03T13:25:02.044Z,97802.84
2022-09-03T13:27:55.280Z,97800.56
2022-09-03T13:30:31.078Z,97809.56
2022-09-03T13:33:26.527Z,97803.25
2022-09-03T13:36:10.896Z,97798.31
2022-09-03T13:38:50.526Z,97801.94
2022-09-03T13:41:43.818Z,97798.47
2022-09-03T13:44:19.773Z,97795.75
2022-09-03T13:46:52.668Z,97788.28
2022-09-03T13:50:05.722Z,97802.59
2022-09-03T13:52:52.195Z,97799.78
2022-09-03T13:55:41.913Z,97803.28
2022-09-03T13:58:28.465Z,97807.03
2022-09-03T14:00:58.477Z,97807.91
2022-09-03T14:03:49.519Z,97812.97
2022-09-03T14:06:42.433Z,97807.38
2022-09-03T14:09:22.445Z,97804.72
2022-09-03T14:11:52.951Z,97804.63
2022-09-03T14:14:56.927Z,97806.25
2022-09-03T14:17:41.439Z,97810.53
2022-09-03T14:20:12.086Z,97810.91
2022-09-03T14:22:56.393Z,97803.63
2022-09-03T14:25:26.071Z,97833.31
2022-09-03T14:27:54.602Z,97831.47
2022-09-03T14:30:29.980Z,97832.75
2022-09-03T14:33:31.325Z,97830.16
2022-09-03T14:36:11.251Z,97835.09
2022-09-03T14:39:07.870Z,97835.31
2022-09-03T14:42:03.470Z,97835.72
2022-09-03T14:44:56.192Z,97839.13
2022-09-03T14:47:22.727Z,97841.38
2022-09-03T14:50:19.726Z,97840.84
2022-09-03T14:53:14.936Z,97846.38
2022-09-03T14:55:57.474Z,97846.59
2022-09-03T14:58:38.382Z,97846.59
2022-09-03T15:01:25.374Z,97840.19
2022-09-03T15:04:37.795Z,97836.59
2022-09-03T15:07:16.680Z,97848.16
2022-09-03T15:10:17.072Z,97849.63
2022-09-03T15:12:49.920Z,97862.72
2022-09-03T15:15:22.575Z,97879.56
2022-09-03T15:18:00.201Z,97880.31
2022-09-03T15:20:35.583Z,97874.03
2022-09-03T15:23:25.740Z,97893.75
2022-09-03T15:26:29.939Z,97893.97
2022-09-03T15:29:17.861Z,97887.16
2022-09-03T15:31:54.091Z,97893.91
2022-09-03T15:34:43.835Z,97887.25
2022-09-03T15:37:44.462Z,97891.34
2022-09-03T15:40:34.800Z,97894.09
2022-09-03T15:43:25.474Z,97889.38
2022-09-03T15:45:58.595Z,97893.75
2022-09-03T15:48:45.530Z,97889.16
2022-09-03T15:51:26.799Z,97889.97
2022-09-03T15:54:03.344Z,97874.75
2022-09-03T15:56:49.896Z,97895.53
2022-09-03T15:59:35.954Z,97877.59
2022-09-03T16:02:33.939Z,97897.44
2022-09-03T16:05:07.758Z,97892.53
2022-09-03T16:07:36.876Z,97888.91
2022-09-03T16:10:26.428Z,97887.78
2022-09-03T16:13:18.869Z,97879.75
2022-09-03T16:16:00.651Z,97872.78
2022-09-03T16:18:40.673Z,97860.28
2022-09-03T16:21:25.905Z,97864.56
2022-09-03T16:23:59.187Z,97862.44
2022-09-03T16:26:42.115Z,97868.84
2022-09-03T16:29:14.470Z,97873.03
2022-09-03T16:31:49.806Z,97864.53
2022-09-03T16:34:48.142Z,97866.97
2022-09-03T16:37:36.473Z,97866.16
2022-09-03T16:40:27.798Z,97865.81
2022-09-03T16:43:40.079Z,97870.09
2022-09-03T16:46:17.816Z,97871.69
2022-09-03T16:49:04.075Z,97871.84
2022-09-03T16:51:52.678Z,97867.50
2022-09-03T16:54:37.987Z,97871.75
2022-09-03T16:57:54.355Z,97867.75
2022-09-03T17:00:21.863Z,97868.81
2022-09-03T17:03:11.540Z,97869.03
2022-09-03T17:06:05.521Z,97865.53
2022-09-03T17:09:01.779Z,97871.13
2022-09-03T17:12:00.513Z,97869.81
2022-09-03T17:15:01.349Z,97874.13
2022-09-03T17:18:04.859Z,97872.28
2022-09-03T17:21:02.411Z,97877.72
2022-09-03T17:24:09.208Z,97878.94
2022-09-03T17:27:03.984Z,97882.28
2022-09-03T17:29:41.613Z,97881.50
2022-09-03T17:32:21.165Z,97796.84
2022-09-03T17:35:11.662Z,97882.84
2022-09-03T17:37:56.668Z,97882.75
2022-09-03T17:40:35.181Z,97887.19
2022-09-03T17:43:19.976Z,97895.84
2022-09-03T17:45:58.930Z,97901.81
2022-09-03T17:48:41.438Z,97898.28
2022-09-03T17:51:26.027Z,97909.31
2022-09-03T17:54:00.112Z,97912.56
2022-09-03T17:56:39.942Z,97908.06
2022-09-03T17:59:22.097Z,97917.50
2022-09-03T18:02:06.793Z,97917.47
2022-09-03T18:04:45.621Z,97906.81
2022-09-03T18:08:02.004Z,97911.94
2022-09-03T18:10:48.895Z,97910.31
2022-09-03T18:13:45.472Z,97920.88
2022-09-03T18:16:27.268Z,97912.28
2022-09-03T18:19:03.777Z,97920.66
2022-09-03T18:21:54.788Z,97926.59
2022-09-03T18:24:57.708Z,97924.78
2022-09-03T18:27:58.432Z,97943.19
2022-09-03T18:30:46.746Z,97939.97
2022-09-03T18:33:32.025Z,97944.56
2022-09-03T18:36:18.034Z,97953.75
2022-09-03T18:39:04.193Z,97945.38
2022-09-03T18:42:29.704Z,97952.41
2022-09-03T18:46:22.392Z,97957.78
2022-09-03T18:49:22.522Z,97959.91
2022-09-03T18:52:44.585Z,97961.53
2022-09-03T18:55:41.447Z,97970.72
2022-09-03T18:58:34.043Z,97976.66
2022-09-03T19:01:32.960Z,97978.28
2022-09-03T19:04:49.786Z,97965.63
2022-09-03T19:08:00.318Z,97989.06
2022-09-03T19:11:25.369Z,97984.50
2022-09-03T19:14:10.933Z,97985.00
2022-09-03T19:17:34.817Z,98000.38
2022-09-03T19:21:03.806Z,97998.22
2022-09-03T19:23:48.751Z,98011.94
2022-09-03T19:26:44.571Z,98020.28
2022-09-03T19:30:08.631Z,98018.09
2022-09-03T19:33:17.450Z,98017.28
2022-09-03T19:36:27.404Z,98016.25
2022-09-03T19:39:44.045Z,98017.31
2022-09-03T19:42:38.245Z,98014.09
2022-09-03T19:45:45.781Z,98016.25
2022-09-03T19:48:47.404Z,98014.91
2022-09-03T19:51:42.566Z,98012.22
2022-09-03T19:54:28.185Z,98010.59
2022-09-03T19:57:16.007Z,98006.84
2022-09-03T20:00:07.002Z,98014.09
2022-09-03T20:02:58.871Z,98020.59
2022-09-03T20:05:44.758Z,98021.38
2022-09-03T20:08:34.690Z,97952.38
2022-09-03T20:11:04.151Z,98023.28
2022-09-03T20:13:58.535Z,98020.00
2022-09-03T20:17:08.582Z,98016.53
2022-09-03T20:19:54.727Z,98022.97
2022-09-03T20:22:30.111Z,98019.47
2022-09-03T20:25:18.648Z,98019.22
2022-09-03T20:28:04.812Z,98025.16
2022-09-03T20:30:50.692Z,98028.38
2022-09-03T20:33:36.262Z,98032.13
2022-09-03T20:36:29.794Z,98034.56
2022-09-03T20:39:26.214Z,98031.06
2022-09-03T20:42:33.657Z,98034.03
2022-09-03T20:45:11.514Z,98042.34
2022-09-03T20:48:00.003Z,98046.66
2022-09-03T20:50:46.139Z,98034.78
2022-09-03T20:53:41.097Z,98049.06
2022-09-03T20:56:18.131Z,98047.69
2022-09-03T20:58:55.341Z,98053.56
2022-09-03T21:01:47.128Z,98055.16
2022-09-03T21:04:37.346Z,98056.16
2022-09-03T21:07:09.680Z,98068.47
2022-09-03T21:09:55.942Z,98065.75
2022-09-03T21:12:44.597Z,98070.91
2022-09-03T21:15:24.267Z,98072.28
2022-09-03T21:18:16.389Z,98076.88
2022-09-03T21:20:52.514Z,98073.59
2022-09-03T21:23:28.508Z,98075.47
2022-09-03T21:26:09.827Z,98073.06
2022-09-03T21:28:41.607Z,98079.25
2022-09-03T21:31:31.921Z,98077.63
2022-09-03T21:34:11.241Z,98083.84
2022-09-03T21:36:41.515Z,98085.75
2022-09-03T21:39:28.419Z,98087.34
2022-09-03T21:42:07.305Z,98080.34
2022-09-03T21:44:39.492Z,98081.16
2022-09-03T21:47:12.503Z,98086.78
2022-09-03T21:49:48.705Z,98081.69
2022-09-03T21:52:19.455Z,98085.69
2022-09-03T21:54:46.094Z,98084.34
2022-09-03T21:57:17.539Z,98091.28
2022-09-03T21:59:58.073Z,98087.03
2022-09-03T22:02:30.111Z,98092.13
2022-09-03T22:04:57.991Z,98088.38
2022-09-03T22:07:43.238Z,98002.03
2022-09-03T22:10:25.534Z,98087.56
2022-09-03T22:13:02.971Z,98081.94
2022-09-03T22:15:30.133Z,98088.41
2022-09-03T22:18:17.403Z,98084.91
2022-09-03T22:20:52.623Z,98091.63
2022-09-03T22:23:26.426Z,98089.41
2022-09-03T22:26:07.314Z,98096.69
2022-09-03T22:28:45.360Z,98093.44
2022-09-03T22:31:27.441Z,98080.22
2022-09-03T22:34:25.274Z,98097.47
2022-09-03T22:36:59.130Z,98096.38
2022-09-03T22:39:38.208Z,98101.81
2022-09-03T22:42:28.031Z,98103.41
2022-09-03T22:45:18.273Z,98092.41
2022-09-03T22:48:02.748Z,98100.44
2022-09-03T22:50:59.268Z,98091.53
2022-09-03T22:54:13.914Z,98110.66
2022-09-03T22:56:41.740Z,98115.25
2022-09-03T22:59:14.242Z,98110.97
2022-09-03T23:01:49.740Z,98109.94
2022-09-03T23:04:32.160Z,98112.06
2022-09-03T23:07:13.002Z,98118.50
2022-09-03T23:09:42.661Z,98104.16
2022-09-03T23:12:20.169Z,98115.44
2022-09-03T23:14:53.667Z,98124.28
2022-09-03T23:22:44.197Z,98123.66
2022-09-03T23:25:16.107Z,98130.09
2022-09-03T23:28:09.818Z,98124.69
2022-09-03T23:30:36.727Z,98129.31
2022-09-03T23:33:03.283Z,98126.09
2022-09-03T23:35:40.129Z,98129.00
2022-09-03T23:38:29.061Z,98130.88
2022-09-03T23:40:59.573Z,98131.09
2022-09-03T23:44:00.895Z,98129.78
2022-09-03T23:46:37.207Z,98132.72
2022-09-03T23:49:22.124Z,98141.84
2022-09-03T23:52:22.871Z,98131.50
2022-09-03T23:54:54.054Z,98133.72
2022-09-03T23:57:39.289Z,98134.22
